sensor_id;sensor_type;location;lat;lon;timestamp;temperature;humidity
6407;DHT22;3236;51.022;6.818;2022-11-03T00:01:37;10.10;99.90
6407;DHT22;3236;51.022;6.818;2022-11-03T00:04:05;9.80;99.90
6407;DHT22;3236;51.022;6.818;2022-11-03T00:09:01;9.80;99.90
6407;DHT22;3236;51.022;6.818;2022-11-03T00:11:31;9.80;99.90
6407;DHT22;3236;51.022;6.818;2022-11-03T00:13:59;9.60;99.90
6407;DHT22;3236;51.022;6.818;2022-11-03T00:16:27;9.80;99.90
6407;DHT22;3236;51.022;6.818;2022-11-03T00:18:58;9.90;99.90
6407;DHT22;3236;51.022;6.818;2022-11-03T00:21:25;9.30;99.90
6407;DHT22;3236;51.022;6.818;2022-11-03T00:23:53;9.70;99.90
6407;DHT22;3236;51.022;6.818;2022-11-03T00:26:21;8.90;99.90
6407;DHT22;3236;51.022;6.818;2022-11-03T00:28:50;10.00;99.90
6407;DHT22;3236;51.022;6.818;2022-11-03T00:31:20;10.20;99.90
6407;DHT22;3236;51.022;6.818;2022-11-03T00:33:48;10.00;99.90
6407;DHT22;3236;51.022;6.818;2022-11-03T00:36:18;9.90;99.90
6407;DHT22;3236;51.022;6.818;2022-11-03T00:38:46;9.90;99.90
6407;DHT22;3236;51.022;6.818;2022-11-03T00:41:13;8.60;99.90
6407;DHT22;3236;51.022;6.818;2022-11-03T00:43:44;9.90;99.90
6407;DHT22;3236;51.022;6.818;2022-11-03T00:51:09;9.80;99.90
6407;DHT22;3236;51.022;6.818;2022-11-03T00:53:39;10.30;99.90
6407;DHT22;3236;51.022;6.818;2022-11-03T00:56:09;10.00;99.90
6407;DHT22;3236;51.022;6.818;2022-11-03T00:58:37;10.10;99.90
6407;DHT22;3236;51.022;6.818;2022-11-03T01:01:05;10.50;99.90
6407;DHT22;3236;51.022;6.818;2022-11-03T01:03:34;9.90;99.90
6407;DHT22;3236;51.022;6.818;2022-11-03T01:06:04;10.10;99.90
6407;DHT22;3236;51.022;6.818;2022-11-03T01:08:50;10.00;99.90
6407;DHT22;3236;51.022;6.818;2022-11-03T01:11:19;10.10;99.90
6407;DHT22;3236;51.022;6.818;2022-11-03T01:14:04;10.10;99.90
6407;DHT22;3236;51.022;6.818;2022-11-03T01:16:32;10.20;99.90
6407;DHT22;3236;51.022;6.818;2022-11-03T01:18:59;10.30;99.90
6407;DHT22;3236;51.022;6.818;2022-11-03T01:23:55;10.40;99.90
6407;DHT22;3236;51.022;6.818;2022-11-03T01:28:52;10.10;99.90
6407;DHT22;3236;51.022;6.818;2022-11-03T01:31:21;10.10;99.90
6407;DHT22;3236;51.022;6.818;2022-11-03T01:33:50;10.10;99.90
6407;DHT22;3236;51.022;6.818;2022-11-03T01:36:18;10.00;99.90
6407;DHT22;3236;51.022;6.818;2022-11-03T01:38:46;10.00;99.90
6407;DHT22;3236;51.022;6.818;2022-11-03T01:41:17;9.90;99.90
6407;DHT22;3236;51.022;6.818;2022-11-03T01:46:16;10.00;99.90
6407;DHT22;3236;51.022;6.818;2022-11-03T01:48:48;10.10;99.90
6407;DHT22;3236;51.022;6.818;2022-11-03T01:51:17;10.00;99.90
6407;DHT22;3236;51.022;6.818;2022-11-03T01:53:47;10.00;99.90
6407;DHT22;3236;51.022;6.818;2022-11-03T01:56:21;10.30;99.90
6407;DHT22;3236;51.022;6.818;2022-11-03T01:58:51;10.00;99.90
6407;DHT22;3236;51.022;6.818;2022-11-03T02:06:24;10.00;99.90
6407;DHT22;3236;51.022;6.818;2022-11-03T02:08:57;10.30;99.90
6407;DHT22;3236;51.022;6.818;2022-11-03T02:11:28;10.20;99.90
6407;DHT22;3236;51.022;6.818;2022-11-03T02:14:13;9.90;99.90
6407;DHT22;3236;51.022;6.818;2022-11-03T02:16:46;10.50;99.90
6407;DHT22;3236;51.022;6.818;2022-11-03T02:19:20;10.50;99.90
6407;DHT22;3236;51.022;6.818;2022-11-03T02:21:57;10.10;99.90
6407;DHT22;3236;51.022;6.818;2022-11-03T02:24:32;10.50;99.90
6407;DHT22;3236;51.022;6.818;2022-11-03T02:27:03;10.20;99.90
6407;DHT22;3236;51.022;6.818;2022-11-03T02:29:30;10.20;99.90
6407;DHT22;3236;51.022;6.818;2022-11-03T02:32:01;10.20;99.90
6407;DHT22;3236;51.022;6.818;2022-11-03T02:34:36;10.20;99.90
6407;DHT22;3236;51.022;6.818;2022-11-03T02:37:08;10.00;99.90
6407;DHT22;3236;51.022;6.818;2022-11-03T02:39:43;10.20;99.90
6407;DHT22;3236;51.022;6.818;2022-11-03T02:42:16;10.20;99.90
6407;DHT22;3236;51.022;6.818;2022-11-03T02:44:56;10.80;99.90
6407;DHT22;3236;51.022;6.818;2022-11-03T02:47:27;10.20;99.90
6407;DHT22;3236;51.022;6.818;2022-11-03T02:49:55;10.60;99.90
6407;DHT22;3236;51.022;6.818;2022-11-03T02:52:37;10.30;99.90
6407;DHT22;3236;51.022;6.818;2022-11-03T02:55:10;10.00;99.90
6407;DHT22;3236;51.022;6.818;2022-11-03T02:57:44;10.30;99.90
6407;DHT22;3236;51.022;6.818;2022-11-03T03:00:14;10.30;99.90
6407;DHT22;3236;51.022;6.818;2022-11-03T03:02:49;10.30;99.90
6407;DHT22;3236;51.022;6.818;2022-11-03T03:05:19;10.30;99.90
6407;DHT22;3236;51.022;6.818;2022-11-03T03:07:49;10.40;99.90
6407;DHT22;3236;51.022;6.818;2022-11-03T03:10:23;10.40;99.90
6407;DHT22;3236;51.022;6.818;2022-11-03T03:12:55;10.40;99.90
6407;DHT22;3236;51.022;6.818;2022-11-03T03:15:29;10.40;99.90
6407;DHT22;3236;51.022;6.818;2022-11-03T03:18:06;10.50;99.90
6407;DHT22;3236;51.022;6.818;2022-11-03T03:20:40;9.50;99.90
6407;DHT22;3236;51.022;6.818;2022-11-03T03:23:14;10.50;99.90
6407;DHT22;3236;51.022;6.818;2022-11-03T03:25:47;10.30;99.90
6407;DHT22;3236;51.022;6.818;2022-11-03T03:28:19;10.40;99.90
6407;DHT22;3236;51.022;6.818;2022-11-03T03:30:50;10.40;99.90
6407;DHT22;3236;51.022;6.818;2022-11-03T03:35:50;10.30;99.90
6407;DHT22;3236;51.022;6.818;2022-11-03T03:43:21;10.00;99.90
6407;DHT22;3236;51.022;6.818;2022-11-03T03:45:50;10.40;99.90
6407;DHT22;3236;51.022;6.818;2022-11-03T03:50:47;10.70;99.90
6407;DHT22;3236;51.022;6.818;2022-11-03T03:53:17;10.70;99.90
6407;DHT22;3236;51.022;6.818;2022-11-03T03:55:47;10.10;99.90
6407;DHT22;3236;51.022;6.818;2022-11-03T03:58:15;10.10;99.90
6407;DHT22;3236;51.022;6.818;2022-11-03T04:00:44;10.50;99.90
6407;DHT22;3236;51.022;6.818;2022-11-03T04:03:14;10.30;99.90
6407;DHT22;3236;51.022;6.818;2022-11-03T04:05:43;10.60;99.90
6407;DHT22;3236;51.022;6.818;2022-11-03T04:08:10;10.60;99.90
6407;DHT22;3236;51.022;6.818;2022-11-03T04:10:37;10.60;99.90
6407;DHT22;3236;51.022;6.818;2022-11-03T04:13:07;10.20;99.90
6407;DHT22;3236;51.022;6.818;2022-11-03T04:15:53;10.50;99.90
6407;DHT22;3236;51.022;6.818;2022-11-03T04:18:37;10.40;99.90
6407;DHT22;3236;51.022;6.818;2022-11-03T04:21:21;10.20;99.90
6407;DHT22;3236;51.022;6.818;2022-11-03T04:26:33;10.60;99.90
6407;DHT22;3236;51.022;6.818;2022-11-03T04:29:00;10.40;99.90
6407;DHT22;3236;51.022;6.818;2022-11-03T04:31:34;10.70;99.90
6407;DHT22;3236;51.022;6.818;2022-11-03T04:34:02;10.40;99.90
6407;DHT22;3236;51.022;6.818;2022-11-03T04:36:29;10.40;99.90
6407;DHT22;3236;51.022;6.818;2022-11-03T04:38:57;10.40;99.90
6407;DHT22;3236;51.022;6.818;2022-11-03T04:41:27;10.40;99.90
6407;DHT22;3236;51.022;6.818;2022-11-03T04:43:56;10.40;99.90
6407;DHT22;3236;51.022;6.818;2022-11-03T04:46:25;10.60;99.90
6407;DHT22;3236;51.022;6.818;2022-11-03T04:48:57;10.50;99.90
6407;DHT22;3236;51.022;6.818;2022-11-03T04:51:28;10.50;99.90
6407;DHT22;3236;51.022;6.818;2022-11-03T04:54:00;10.50;99.90
6407;DHT22;3236;51.022;6.818;2022-11-03T04:56:31;10.60;99.90
6407;DHT22;3236;51.022;6.818;2022-11-03T04:58:59;10.70;99.90
6407;DHT22;3236;51.022;6.818;2022-11-03T05:01:26;10.60;99.90
6407;DHT22;3236;51.022;6.818;2022-11-03T05:03:55;10.70;99.90
6407;DHT22;3236;51.022;6.818;2022-11-03T05:06:25;10.60;99.90
6407;DHT22;3236;51.022;6.818;2022-11-03T05:08:57;10.70;99.90
6407;DHT22;3236;51.022;6.818;2022-11-03T05:11:30;10.70;99.90
6407;DHT22;3236;51.022;6.818;2022-11-03T05:14:00;10.90;99.90
6407;DHT22;3236;51.022;6.818;2022-11-03T05:18:57;10.40;99.90
6407;DHT22;3236;51.022;6.818;2022-11-03T05:21:26;10.70;99.90
6407;DHT22;3236;51.022;6.818;2022-11-03T05:23:55;10.70;99.90
6407;DHT22;3236;51.022;6.818;2022-11-03T05:26:25;10.60;99.90
6407;DHT22;3236;51.022;6.818;2022-11-03T05:28:55;10.70;99.90
6407;DHT22;3236;51.022;6.818;2022-11-03T05:31:26;10.70;99.90
6407;DHT22;3236;51.022;6.818;2022-11-03T05:33:58;10.80;99.90
6407;DHT22;3236;51.022;6.818;2022-11-03T05:36:28;10.60;99.90
6407;DHT22;3236;51.022;6.818;2022-11-03T05:38:58;11.00;99.90
6407;DHT22;3236;51.022;6.818;2022-11-03T05:41:28;10.70;99.90
6407;DHT22;3236;51.022;6.818;2022-11-03T05:43:59;10.70;99.90
6407;DHT22;3236;51.022;6.818;2022-11-03T05:46:28;10.80;99.90
6407;DHT22;3236;51.022;6.818;2022-11-03T05:49:00;10.80;99.90
6407;DHT22;3236;51.022;6.818;2022-11-03T05:51:31;10.80;99.90
6407;DHT22;3236;51.022;6.818;2022-11-03T05:54:02;10.80;99.90
6407;DHT22;3236;51.022;6.818;2022-11-03T05:56:32;10.80;99.90
6407;DHT22;3236;51.022;6.818;2022-11-03T05:59:01;10.70;99.90
6407;DHT22;3236;51.022;6.818;2022-11-03T06:01:30;10.80;99.90
6407;DHT22;3236;51.022;6.818;2022-11-03T06:06:32;10.70;99.90
6407;DHT22;3236;51.022;6.818;2022-11-03T06:09:01;10.60;99.90
6407;DHT22;3236;51.022;6.818;2022-11-03T06:11:32;10.60;99.90
6407;DHT22;3236;51.022;6.818;2022-11-03T06:14:12;10.60;99.90
6407;DHT22;3236;51.022;6.818;2022-11-03T06:16:41;10.40;99.90
6407;DHT22;3236;51.022;6.818;2022-11-03T06:19:21;10.50;99.90
6407;DHT22;3236;51.022;6.818;2022-11-03T06:21:50;10.30;99.90
6407;DHT22;3236;51.022;6.818;2022-11-03T06:24:20;10.60;99.90
6407;DHT22;3236;51.022;6.818;2022-11-03T06:26:48;10.60;99.90
6407;DHT22;3236;51.022;6.818;2022-11-03T06:31:47;10.80;99.90
6407;DHT22;3236;51.022;6.818;2022-11-03T06:34:28;10.80;99.90
6407;DHT22;3236;51.022;6.818;2022-11-03T06:36:58;10.90;99.90
6407;DHT22;3236;51.022;6.818;2022-11-03T06:39:28;10.80;99.90
6407;DHT22;3236;51.022;6.818;2022-11-03T06:44:24;10.90;99.90
6407;DHT22;3236;51.022;6.818;2022-11-03T06:46:56;10.90;99.90
6407;DHT22;3236;51.022;6.818;2022-11-03T06:49:30;10.90;99.90
6407;DHT22;3236;51.022;6.818;2022-11-03T06:52:04;11.20;99.90
6407;DHT22;3236;51.022;6.818;2022-11-03T07:04:30;10.70;99.90
6407;DHT22;3236;51.022;6.818;2022-11-03T07:07:02;10.60;99.90
6407;DHT22;3236;51.022;6.818;2022-11-03T07:09:29;10.60;99.90
6407;DHT22;3236;51.022;6.818;2022-11-03T07:11:58;11.10;99.90
6407;DHT22;3236;51.022;6.818;2022-11-03T07:14:27;11.00;99.90
6407;DHT22;3236;51.022;6.818;2022-11-03T07:16:56;11.00;99.90
6407;DHT22;3236;51.022;6.818;2022-11-03T07:19:26;11.30;99.90
6407;DHT22;3236;51.022;6.818;2022-11-03T07:21:58;11.00;99.90
6407;DHT22;3236;51.022;6.818;2022-11-03T07:24:28;11.30;99.90
6407;DHT22;3236;51.022;6.818;2022-11-03T07:27:13;11.40;99.90
6407;DHT22;3236;51.022;6.818;2022-11-03T07:32:13;11.80;99.90
6407;DHT22;3236;51.022;6.818;2022-11-03T07:37:14;11.90;99.90
6407;DHT22;3236;51.022;6.818;2022-11-03T07:42:16;12.10;99.90
6407;DHT22;3236;51.022;6.818;2022-11-03T07:44:44;11.80;99.90
6407;DHT22;3236;51.022;6.818;2022-11-03T07:47:18;12.30;99.90
6407;DHT22;3236;51.022;6.818;2022-11-03T07:49:45;12.70;99.90
6407;DHT22;3236;51.022;6.818;2022-11-03T07:54:46;12.40;99.90
6407;DHT22;3236;51.022;6.818;2022-11-03T07:57:18;13.20;99.90
6407;DHT22;3236;51.022;6.818;2022-11-03T07:59:49;12.20;99.90
6407;DHT22;3236;51.022;6.818;2022-11-03T08:02:30;12.10;99.90
6407;DHT22;3236;51.022;6.818;2022-11-03T08:14:52;12.80;99.90
6407;DHT22;3236;51.022;6.818;2022-11-03T08:17:19;12.50;99.90
6407;DHT22;3236;51.022;6.818;2022-11-03T08:19:48;12.50;99.90
6407;DHT22;3236;51.022;6.818;2022-11-03T08:22:16;12.70;99.90
6407;DHT22;3236;51.022;6.818;2022-11-03T08:32:08;12.60;99.90
6407;DHT22;3236;51.022;6.818;2022-11-03T08:34:35;12.90;99.90
6407;DHT22;3236;51.022;6.818;2022-11-03T08:44:29;12.80;99.90
6407;DHT22;3236;51.022;6.818;2022-11-03T08:49:26;13.00;99.90
6407;DHT22;3236;51.022;6.818;2022-11-03T08:51:54;12.90;99.90
6407;DHT22;3236;51.022;6.818;2022-11-03T08:54:21;13.60;99.90
6407;DHT22;3236;51.022;6.818;2022-11-03T08:56:48;13.10;99.90
6407;DHT22;3236;51.022;6.818;2022-11-03T08:59:16;13.40;99.90
6407;DHT22;3236;51.022;6.818;2022-11-03T09:01:44;13.20;99.90
6407;DHT22;3236;51.022;6.818;2022-11-03T09:11:33;13.60;99.90
6407;DHT22;3236;51.022;6.818;2022-11-03T09:14:01;14.10;99.90
6407;DHT22;3236;51.022;6.818;2022-11-03T09:16:30;13.80;99.90
6407;DHT22;3236;51.022;6.818;2022-11-03T09:21:25;13.90;99.90
6407;DHT22;3236;51.022;6.818;2022-11-03T09:23:51;14.10;99.90
6407;DHT22;3236;51.022;6.818;2022-11-03T09:26:19;14.40;99.90
6407;DHT22;3236;51.022;6.818;2022-11-03T09:28:46;14.00;99.90
6407;DHT22;3236;51.022;6.818;2022-11-03T09:31:17;14.00;99.90
6407;DHT22;3236;51.022;6.818;2022-11-03T09:33:46;13.70;99.90
6407;DHT22;3236;51.022;6.818;2022-11-03T09:36:13;14.10;99.90
6407;DHT22;3236;51.022;6.818;2022-11-03T09:41:08;14.60;99.90
6407;DHT22;3236;51.022;6.818;2022-11-03T09:43:44;14.10;99.90
6407;DHT22;3236;51.022;6.818;2022-11-03T09:46:15;14.20;99.90
6407;DHT22;3236;51.022;6.818;2022-11-03T09:51:16;14.20;99.90
6407;DHT22;3236;51.022;6.818;2022-11-03T09:53:48;14.20;99.90
6407;DHT22;3236;51.022;6.818;2022-11-03T09:56:18;14.30;99.90
6407;DHT22;3236;51.022;6.818;2022-11-03T09:58:48;14.60;99.90
6407;DHT22;3236;51.022;6.818;2022-11-03T10:01:15;14.60;99.90
6407;DHT22;3236;51.022;6.818;2022-11-03T10:03:42;14.00;99.90
6407;DHT22;3236;51.022;6.818;2022-11-03T10:06:11;14.20;99.90
6407;DHT22;3236;51.022;6.818;2022-11-03T10:08:42;14.10;99.90
6407;DHT22;3236;51.022;6.818;2022-11-03T10:11:11;14.30;99.90
6407;DHT22;3236;51.022;6.818;2022-11-03T10:13:43;14.60;99.90
6407;DHT22;3236;51.022;6.818;2022-11-03T10:16:16;13.90;99.90
6407;DHT22;3236;51.022;6.818;2022-11-03T10:18:44;13.50;99.90
6407;DHT22;3236;51.022;6.818;2022-11-03T10:21:14;14.40;99.90
6407;DHT22;3236;51.022;6.818;2022-11-03T10:26:12;14.10;99.90
6407;DHT22;3236;51.022;6.818;2022-11-03T10:31:32;14.40;99.90
6407;DHT22;3236;51.022;6.818;2022-11-03T10:33:59;14.30;99.90
6407;DHT22;3236;51.022;6.818;2022-11-03T10:36:29;14.00;99.90
6407;DHT22;3236;51.022;6.818;2022-11-03T10:38:56;14.40;99.90
6407;DHT22;3236;51.022;6.818;2022-11-03T10:41:27;14.20;99.90
6407;DHT22;3236;51.022;6.818;2022-11-03T10:44:07;14.10;99.90
6407;DHT22;3236;51.022;6.818;2022-11-03T10:51:53;14.10;99.90
6407;DHT22;3236;51.022;6.818;2022-11-03T10:59:20;14.10;99.90
6407;DHT22;3236;51.022;6.818;2022-11-03T11:01:56;13.90;99.90
6407;DHT22;3236;51.022;6.818;2022-11-03T11:04:23;13.50;99.90
6407;DHT22;3236;51.022;6.818;2022-11-03T11:09:25;13.80;99.90
6407;DHT22;3236;51.022;6.818;2022-11-03T11:12:02;14.20;99.90
6407;DHT22;3236;51.022;6.818;2022-11-03T11:14:37;13.50;99.90
6407;DHT22;3236;51.022;6.818;2022-11-03T11:17:38;14.00;99.90
6407;DHT22;3236;51.022;6.818;2022-11-03T11:20:29;13.90;99.90
6407;DHT22;3236;51.022;6.818;2022-11-03T11:28:46;14.00;99.90
6407;DHT22;3236;51.022;6.818;2022-11-03T11:31:33;14.10;99.90
6407;DHT22;3236;51.022;6.818;2022-11-03T11:34:38;14.20;99.90
6407;DHT22;3236;51.022;6.818;2022-11-03T11:37:30;13.70;99.90
6407;DHT22;3236;51.022;6.818;2022-11-03T11:39:59;14.30;99.90
6407;DHT22;3236;51.022;6.818;2022-11-03T11:42:27;14.40;99.90
6407;DHT22;3236;51.022;6.818;2022-11-03T11:44:59;13.90;99.90
6407;DHT22;3236;51.022;6.818;2022-11-03T11:47:46;13.90;99.90
6407;DHT22;3236;51.022;6.818;2022-11-03T11:50:31;13.90;99.90
6407;DHT22;3236;51.022;6.818;2022-11-03T11:53:20;13.90;99.90
6407;DHT22;3236;51.022;6.818;2022-11-03T11:55:50;13.40;99.90
6407;DHT22;3236;51.022;6.818;2022-11-03T11:58:22;13.80;99.90
6407;DHT22;3236;51.022;6.818;2022-11-03T12:00:56;13.70;99.90
6407;DHT22;3236;51.022;6.818;2022-11-03T12:03:28;13.70;99.90
6407;DHT22;3236;51.022;6.818;2022-11-03T12:05:55;13.90;99.90
6407;DHT22;3236;51.022;6.818;2022-11-03T12:08:26;13.50;99.90
6407;DHT22;3236;51.022;6.818;2022-11-03T12:10:59;14.00;99.90
6407;DHT22;3236;51.022;6.818;2022-11-03T12:13:42;14.00;99.90
6407;DHT22;3236;51.022;6.818;2022-11-03T12:16:29;13.70;99.90
6407;DHT22;3236;51.022;6.818;2022-11-03T12:22:01;15.20;99.90
6407;DHT22;3236;51.022;6.818;2022-11-03T12:24:45;13.70;99.90
6407;DHT22;3236;51.022;6.818;2022-11-03T12:27:41;13.80;99.90
6407;DHT22;3236;51.022;6.818;2022-11-03T12:30:18;13.50;99.90
6407;DHT22;3236;51.022;6.818;2022-11-03T12:32:46;14.20;99.90
6407;DHT22;3236;51.022;6.818;2022-11-03T12:35:13;13.80;99.90
6407;DHT22;3236;51.022;6.818;2022-11-03T12:37:40;14.30;99.90
6407;DHT22;3236;51.022;6.818;2022-11-03T12:40:11;13.90;99.90
6407;DHT22;3236;51.022;6.818;2022-11-03T12:42:38;13.80;99.90
6407;DHT22;3236;51.022;6.818;2022-11-03T12:45:06;13.80;99.90
6407;DHT22;3236;51.022;6.818;2022-11-03T12:47:35;15.30;99.90
6407;DHT22;3236;51.022;6.818;2022-11-03T12:52:30;13.30;99.90
6407;DHT22;3236;51.022;6.818;2022-11-03T12:55:11;13.70;99.90
6407;DHT22;3236;51.022;6.818;2022-11-03T12:57:38;13.50;99.90
6407;DHT22;3236;51.022;6.818;2022-11-03T13:00:06;13.50;99.90
6407;DHT22;3236;51.022;6.818;2022-11-03T13:02:35;13.30;99.90
6407;DHT22;3236;51.022;6.818;2022-11-03T13:05:06;14.00;99.90
6407;DHT22;3236;51.022;6.818;2022-11-03T13:07:33;13.60;99.90
6407;DHT22;3236;51.022;6.818;2022-11-03T13:10:00;13.60;99.90
6407;DHT22;3236;51.022;6.818;2022-11-03T13:12:35;13.60;99.90
6407;DHT22;3236;51.022;6.818;2022-11-03T13:35:34;13.90;99.90
6407;DHT22;3236;51.022;6.818;2022-11-03T13:38:01;14.20;99.90
6407;DHT22;3236;51.022;6.818;2022-11-03T13:40:28;14.10;99.90
6407;DHT22;3236;51.022;6.818;2022-11-03T13:42:58;14.20;99.90
6407;DHT22;3236;51.022;6.818;2022-11-03T13:52:49;13.30;99.90
6407;DHT22;3236;51.022;6.818;2022-11-03T13:55:17;13.70;99.90
6407;DHT22;3236;51.022;6.818;2022-11-03T13:57:44;13.60;99.90
6407;DHT22;3236;51.022;6.818;2022-11-03T14:00:12;13.50;99.90
6407;DHT22;3236;51.022;6.818;2022-11-03T14:02:42;13.40;99.90
6407;DHT22;3236;51.022;6.818;2022-11-03T14:05:10;13.50;99.90
6407;DHT22;3236;51.022;6.818;2022-11-03T14:07:38;13.50;99.90
6407;DHT22;3236;51.022;6.818;2022-11-03T14:10:06;13.40;99.90
6407;DHT22;3236;51.022;6.818;2022-11-03T14:15:03;13.30;99.90
6407;DHT22;3236;51.022;6.818;2022-11-03T14:20:00;13.10;99.90
6407;DHT22;3236;51.022;6.818;2022-11-03T14:22:30;13.60;99.90
6407;DHT22;3236;51.022;6.818;2022-11-03T14:24:58;13.20;99.90
6407;DHT22;3236;51.022;6.818;2022-11-03T14:32:20;12.80;99.90
6407;DHT22;3236;51.022;6.818;2022-11-03T14:34:47;13.00;99.90
6407;DHT22;3236;51.022;6.818;2022-11-03T14:37:16;13.20;99.90
6407;DHT22;3236;51.022;6.818;2022-11-03T14:39:42;12.50;99.90
6407;DHT22;3236;51.022;6.818;2022-11-03T14:42:11;12.50;99.90
6407;DHT22;3236;51.022;6.818;2022-11-03T14:44:40;12.60;99.90
6407;DHT22;3236;51.022;6.818;2022-11-03T14:47:09;12.50;99.90
6407;DHT22;3236;51.022;6.818;2022-11-03T14:49:46;12.40;99.90
6407;DHT22;3236;51.022;6.818;2022-11-03T14:52:16;14.00;99.90
6407;DHT22;3236;51.022;6.818;2022-11-03T14:59:41;12.10;99.90
6407;DHT22;3236;51.022;6.818;2022-11-03T15:02:09;12.00;99.90
6407;DHT22;3236;51.022;6.818;2022-11-03T15:07:07;12.10;99.90
6407;DHT22;3236;51.022;6.818;2022-11-03T15:58:58;11.80;99.90
6407;DHT22;3236;51.022;6.818;2022-11-03T16:06:21;11.30;99.90
6407;DHT22;3236;51.022;6.818;2022-11-03T17:27:53;11.40;99.90
6407;DHT22;3236;51.022;6.818;2022-11-03T17:30:23;11.40;99.90
6407;DHT22;3236;51.022;6.818;2022-11-03T17:32:58;11.40;99.90
6407;DHT22;3236;51.022;6.818;2022-11-03T17:35:29;11.20;99.90
6407;DHT22;3236;51.022;6.818;2022-11-03T17:38:00;11.30;99.90
6407;DHT22;3236;51.022;6.818;2022-11-03T17:40:28;11.50;99.90
6407;DHT22;3236;51.022;6.818;2022-11-03T17:45:25;11.30;99.90
6407;DHT22;3236;51.022;6.818;2022-11-03T17:47:53;11.60;99.90
6407;DHT22;3236;51.022;6.818;2022-11-03T17:52:54;11.20;99.90
6407;DHT22;3236;51.022;6.818;2022-11-03T17:55:25;11.10;99.90
6407;DHT22;3236;51.022;6.818;2022-11-03T17:57:57;11.30;99.90
6407;DHT22;3236;51.022;6.818;2022-11-03T18:00:25;11.50;99.90
6407;DHT22;3236;51.022;6.818;2022-11-03T18:05:29;11.50;99.90
6407;DHT22;3236;51.022;6.818;2022-11-03T18:07:57;11.40;99.90
6407;DHT22;3236;51.022;6.818;2022-11-03T18:10:26;11.40;99.90
6407;DHT22;3236;51.022;6.818;2022-11-03T18:12:57;11.40;99.90
6407;DHT22;3236;51.022;6.818;2022-11-03T18:15:46;11.40;99.90
6407;DHT22;3236;51.022;6.818;2022-11-03T18:20:48;11.40;99.90
6407;DHT22;3236;51.022;6.818;2022-11-03T18:23:17;11.40;99.90
6407;DHT22;3236;51.022;6.818;2022-11-03T18:28:14;11.50;99.90
6407;DHT22;3236;51.022;6.818;2022-11-03T18:30:42;11.50;99.90
6407;DHT22;3236;51.022;6.818;2022-11-03T18:33:16;11.50;99.90
6407;DHT22;3236;51.022;6.818;2022-11-03T18:35:44;11.50;99.90
6407;DHT22;3236;51.022;6.818;2022-11-03T18:38:12;11.60;99.90
6407;DHT22;3236;51.022;6.818;2022-11-03T18:40:40;11.60;99.90
6407;DHT22;3236;51.022;6.818;2022-11-03T18:43:13;11.60;99.90
6407;DHT22;3236;51.022;6.818;2022-11-03T18:53:11;11.30;99.90
6407;DHT22;3236;51.022;6.818;2022-11-03T18:55:38;11.50;99.90
6407;DHT22;3236;51.022;6.818;2022-11-03T18:58:15;11.50;99.90
6407;DHT22;3236;51.022;6.818;2022-11-03T19:03:13;11.60;99.90
6407;DHT22;3236;51.022;6.818;2022-11-03T19:05:41;11.50;99.90
6407;DHT22;3236;51.022;6.818;2022-11-03T19:08:14;11.60;99.90
6407;DHT22;3236;51.022;6.818;2022-11-03T19:13:17;11.60;99.90
6407;DHT22;3236;51.022;6.818;2022-11-03T19:20:41;11.90;99.90
6407;DHT22;3236;51.022;6.818;2022-11-03T19:23:08;11.50;99.90
6407;DHT22;3236;51.022;6.818;2022-11-03T19:25:37;11.40;99.90
6407;DHT22;3236;51.022;6.818;2022-11-03T19:28:04;11.60;99.90
6407;DHT22;3236;51.022;6.818;2022-11-03T19:30:33;11.50;99.90
6407;DHT22;3236;51.022;6.818;2022-11-03T19:33:00;11.30;99.90
6407;DHT22;3236;51.022;6.818;2022-11-03T19:35:30;11.40;99.90
6407;DHT22;3236;51.022;6.818;2022-11-03T19:38:00;11.30;99.90
6407;DHT22;3236;51.022;6.818;2022-11-03T19:40:29;11.80;99.90
6407;DHT22;3236;51.022;6.818;2022-11-03T19:42:56;11.30;99.90
6407;DHT22;3236;51.022;6.818;2022-11-03T19:45:23;11.80;99.90
6407;DHT22;3236;51.022;6.818;2022-11-03T19:47:55;11.40;99.90
6407;DHT22;3236;51.022;6.818;2022-11-03T19:50:24;11.40;99.90
6407;DHT22;3236;51.022;6.818;2022-11-03T19:52:57;11.80;99.90
6407;DHT22;3236;51.022;6.818;2022-11-03T19:55:31;11.50;99.90
6407;DHT22;3236;51.022;6.818;2022-11-03T19:58:06;11.70;99.90
6407;DHT22;3236;51.022;6.818;2022-11-03T20:28:16;11.40;99.90
6407;DHT22;3236;51.022;6.818;2022-11-03T20:40:39;11.40;99.90
6407;DHT22;3236;51.022;6.818;2022-11-03T20:43:20;11.40;99.90
6407;DHT22;3236;51.022;6.818;2022-11-03T20:48:15;11.80;99.90
6407;DHT22;3236;51.022;6.818;2022-11-03T20:53:13;11.40;99.90
6407;DHT22;3236;51.022;6.818;2022-11-03T20:58:13;11.50;99.90
6407;DHT22;3236;51.022;6.818;2022-11-03T21:00:41;11.30;99.90
6407;DHT22;3236;51.022;6.818;2022-11-03T21:03:17;11.40;99.90
6407;DHT22;3236;51.022;6.818;2022-11-03T21:13:12;11.30;99.90
6407;DHT22;3236;51.022;6.818;2022-11-03T21:18:25;11.40;99.90
6407;DHT22;3236;51.022;6.818;2022-11-03T21:26:12;11.50;99.90
6407;DHT22;3236;51.022;6.818;2022-11-03T21:28:39;11.70;99.90
6407;DHT22;3236;51.022;6.818;2022-11-03T21:31:08;10.90;99.90
6407;DHT22;3236;51.022;6.818;2022-11-03T21:33:38;11.10;99.90
6407;DHT22;3236;51.022;6.818;2022-11-03T21:38:35;11.40;99.90
6407;DHT22;3236;51.022;6.818;2022-11-03T21:41:06;11.40;99.90
6407;DHT22;3236;51.022;6.818;2022-11-03T21:43:51;11.40;99.90
6407;DHT22;3236;51.022;6.818;2022-11-03T21:56:45;11.30;99.90
6407;DHT22;3236;51.022;6.818;2022-11-03T22:01:40;11.10;99.90
6407;DHT22;3236;51.022;6.818;2022-11-03T22:04:07;10.00;99.90
6407;DHT22;3236;51.022;6.818;2022-11-03T22:06:34;11.20;99.90
6407;DHT22;3236;51.022;6.818;2022-11-03T22:09:02;11.80;99.90
6407;DHT22;3236;51.022;6.818;2022-11-03T22:11:30;11.60;99.90
6407;DHT22;3236;51.022;6.818;2022-11-03T22:13:58;11.40;99.90
6407;DHT22;3236;51.022;6.818;2022-11-03T22:16:29;11.60;99.90
6407;DHT22;3236;51.022;6.818;2022-11-03T22:19:01;11.80;99.90
6407;DHT22;3236;51.022;6.818;2022-11-03T22:21:47;11.40;99.90
6407;DHT22;3236;51.022;6.818;2022-11-03T22:24:32;11.60;99.90
6407;DHT22;3236;51.022;6.818;2022-11-03T22:27:19;11.50;99.90
6407;DHT22;3236;51.022;6.818;2022-11-03T22:29:46;11.20;99.90
6407;DHT22;3236;51.022;6.818;2022-11-03T22:32:31;11.10;99.90
6407;DHT22;3236;51.022;6.818;2022-11-03T22:37:43;11.10;99.90
6407;DHT22;3236;51.022;6.818;2022-11-03T22:40:12;11.10;99.90
6407;DHT22;3236;51.022;6.818;2022-11-03T22:43:00;11.10;99.90
6407;DHT22;3236;51.022;6.818;2022-11-03T22:45:45;10.70;99.90
6407;DHT22;3236;51.022;6.818;2022-11-03T22:48:20;10.90;99.90
6407;DHT22;3236;51.022;6.818;2022-11-03T22:50:54;10.80;99.90
6407;DHT22;3236;51.022;6.818;2022-11-03T22:53:30;10.60;99.90
6407;DHT22;3236;51.022;6.818;2022-11-03T22:58:47;10.50;99.90
6407;DHT22;3236;51.022;6.818;2022-11-03T23:01:16;10.80;99.90
6407;DHT22;3236;51.022;6.818;2022-11-03T23:03:44;10.30;99.90
6407;DHT22;3236;51.022;6.818;2022-11-03T23:06:20;10.40;99.90
6407;DHT22;3236;51.022;6.818;2022-11-03T23:08:49;10.50;99.90
6407;DHT22;3236;51.022;6.818;2022-11-03T23:11:18;10.40;99.90
6407;DHT22;3236;51.022;6.818;2022-11-03T23:13:50;10.40;99.90
6407;DHT22;3236;51.022;6.818;2022-11-03T23:16:19;10.70;99.90
6407;DHT22;3236;51.022;6.818;2022-11-03T23:18:47;10.50;99.90
6407;DHT22;3236;51.022;6.818;2022-11-03T23:21:32;10.50;99.90
6407;DHT22;3236;51.022;6.818;2022-11-03T23:24:00;10.70;99.90
6407;DHT22;3236;51.022;6.818;2022-11-03T23:26:45;10.10;99.90
6407;DHT22;3236;51.022;6.818;2022-11-03T23:29:14;10.50;99.90
6407;DHT22;3236;51.022;6.818;2022-11-03T23:31:43;10.40;99.90